createdAt,value
2019-04-06T00:00:00.405Z,125.33
2019-04-06T00:02:34.704Z,132.40
2019-04-06T00:05:03.135Z,126.67
2019-04-06T00:07:31.581Z,130.50
2019-04-06T00:10:00.026Z,119.27
2019-04-06T00:12:28.503Z,122.63
2019-04-06T00:14:56.946Z,125.40
2019-04-06T00:17:25.505Z,113.93
2019-04-06T00:19:53.963Z,119.53
2019-04-06T00:22:22.392Z,114.87
2019-04-06T00:24:50.834Z,110.83
2019-04-06T00:27:19.261Z,107.47
2019-04-06T00:29:47.728Z,112.77
2019-04-06T00:32:23.801Z,112.17
2019-04-06T00:34:52.244Z,115.90
2019-04-06T00:37:20.682Z,122.03
2019-04-06T00:39:49.117Z,139.03
2019-04-06T00:42:19.091Z,128.23
2019-04-06T00:44:47.527Z,126.37
2019-04-06T00:47:15.952Z,131.93
2019-04-06T00:49:44.394Z,111.73
2019-04-06T00:52:12.824Z,129.10
2019-04-06T00:54:41.261Z,130.23
2019-04-06T00:57:09.693Z,126.77
2019-04-06T00:59:38.133Z,117.87
2019-04-06T01:02:07.034Z,123.80
2019-04-06T01:04:35.469Z,118.67
2019-04-06T01:07:03.897Z,121.73
2019-04-06T01:09:32.365Z,122.87
2019-04-06T01:12:00.800Z,129.07
2019-04-06T01:14:29.235Z,123.47
2019-04-06T01:16:57.665Z,126.77
2019-04-06T01:19:26.097Z,135.17
2019-04-06T01:21:54.713Z,119.93
2019-04-06T01:24:23.146Z,122.10
2019-04-06T01:26:51.683Z,132.80
2019-04-06T01:29:20.201Z,122.67
2019-04-06T01:31:48.829Z,131.67
2019-04-06T01:34:17.414Z,115.50
2019-04-06T01:36:45.850Z,121.97
2019-04-06T01:39:14.298Z,123.27
2019-04-06T01:41:42.799Z,119.93
2019-04-06T01:44:11.230Z,123.10
2019-04-06T01:46:39.673Z,132.83
2019-04-06T01:49:08.094Z,121.50
2019-04-06T01:51:36.537Z,130.53
2019-04-06T01:54:04.969Z,118.53
2019-04-06T01:56:33.506Z,121.00
2019-04-06T01:59:02.117Z,127.53
2019-04-06T02:01:32.193Z,134.03
2019-04-06T02:04:00.626Z,124.37
2019-04-06T02:06:29.061Z,115.27
2019-04-06T02:08:57.493Z,134.80
2019-04-06T02:11:25.937Z,118.87
2019-04-06T02:13:54.384Z,110.00
2019-04-06T02:16:22.832Z,119.07
2019-04-06T02:18:52.677Z,120.77
2019-04-06T02:21:21.179Z,128.00
2019-04-06T02:23:49.625Z,134.20
2019-04-06T02:26:29.128Z,131.60
2019-04-06T02:28:48.491Z,130.03
2019-04-06T02:31:18.585Z,127.27
2019-04-06T02:33:57.818Z,129.40
2019-04-06T02:36:30.859Z,120.40
2019-04-06T02:39:20.710Z,117.60
2019-04-06T02:41:53.914Z,113.83
2019-04-06T02:44:22.349Z,131.17
2019-04-06T02:46:50.937Z,137.93
2019-04-06T02:49:19.439Z,120.27
2019-04-06T02:51:47.877Z,124.40
2019-04-06T02:54:16.435Z,114.40
2019-04-06T02:56:47.394Z,120.20
2019-04-06T02:59:15.414Z,117.13
2019-04-06T03:01:43.947Z,122.37
2019-04-06T03:04:12.829Z,118.07
2019-04-06T03:06:41.260Z,125.03
2019-04-06T03:09:11.814Z,121.07
2019-04-06T03:11:39.863Z,124.50
2019-04-06T03:14:08.307Z,118.37
2019-04-06T03:16:36.731Z,115.80
2019-04-06T03:19:05.288Z,111.90
2019-04-06T03:21:33.890Z,124.40
2019-04-06T03:24:02.342Z,123.17
2019-04-06T03:26:31.053Z,123.60
2019-04-06T03:28:59.793Z,121.23
2019-04-06T03:31:28.603Z,121.87
2019-04-06T03:33:57.641Z,127.57
2019-04-06T03:36:26.453Z,124.93
2019-04-06T03:38:54.966Z,113.47
2019-04-06T03:41:23.392Z,111.03
2019-04-06T03:43:51.939Z,133.03
2019-04-06T03:46:20.448Z,116.77
2019-04-06T03:48:48.888Z,124.57
2019-04-06T03:51:17.564Z,120.30
2019-04-06T03:53:46.500Z,123.20
2019-04-06T03:56:14.923Z,107.00
2019-04-06T03:58:43.628Z,123.57
2019-04-06T04:01:12.543Z,107.17
2019-04-06T04:03:41.118Z,115.33
2019-04-06T04:06:09.627Z,120.27
2019-04-06T04:08:38.077Z,108.23
2019-04-06T04:11:06.665Z,107.17
2019-04-06T04:13:35.110Z,119.10
2019-04-06T04:16:03.544Z,117.33
2019-04-06T04:18:32.054Z,115.80
2019-04-06T04:21:00.647Z,119.37
2019-04-06T04:23:29.134Z,118.63
2019-04-06T04:25:57.568Z,119.23
2019-04-06T04:28:26.086Z,125.80
2019-04-06T04:30:54.618Z,127.63
2019-04-06T04:33:23.055Z,106.93
2019-04-06T04:35:51.560Z,116.67
2019-04-06T04:38:20.079Z,116.67
2019-04-06T04:40:48.877Z,118.77
2019-04-06T04:43:18.751Z,121.77
2019-04-06T04:45:47.190Z,116.97
2019-04-06T04:48:15.758Z,130.77
2019-04-06T04:50:44.435Z,123.10
2019-04-06T04:53:12.873Z,119.43
2019-04-06T04:55:41.382Z,131.57
2019-04-06T04:58:09.822Z,127.30
2019-04-06T05:00:38.249Z,122.13
2019-04-06T05:03:06.756Z,123.47
2019-04-06T05:05:36.229Z,134.20
2019-04-06T05:08:04.662Z,126.37
2019-04-06T05:10:33.108Z,150.27
2019-04-06T05:13:01.555Z,145.40
2019-04-06T05:15:33.229Z,144.93
2019-04-06T05:18:02.292Z,136.83
2019-04-06T05:20:30.882Z,140.73
2019-04-06T05:22:59.321Z,152.40
2019-04-06T05:25:27.758Z,134.90
2019-04-06T05:27:56.522Z,144.53
2019-04-06T05:30:24.965Z,125.03
2019-04-06T05:32:53.397Z,130.80
2019-04-06T05:35:21.837Z,134.77
2019-04-06T05:37:50.272Z,147.83
2019-04-06T05:40:18.730Z,135.67
2019-04-06T05:42:47.160Z,137.17
2019-04-06T05:45:16.757Z,140.40
2019-04-06T05:47:45.199Z,131.77
2019-04-06T05:50:14.215Z,126.07
2019-04-06T05:52:42.773Z,129.23
2019-04-06T05:55:11.726Z,139.73
2019-04-06T05:57:40.496Z,131.53
2019-04-06T06:00:10.675Z,148.43
2019-04-06T06:02:41.320Z,159.53
2019-04-06T06:05:10.402Z,146.87
2019-04-06T06:07:39.598Z,139.50
2019-04-06T06:10:08.467Z,158.37
2019-04-06T06:12:36.911Z,149.07
2019-04-06T06:15:08.661Z,178.73
2019-04-06T06:17:37.114Z,161.90
2019-04-06T06:20:06.900Z,177.00
2019-04-06T06:22:35.644Z,179.40
2019-04-06T06:25:06.540Z,199.50
2019-04-06T06:27:35.145Z,193.70
2019-04-06T06:30:05.381Z,213.77
2019-04-06T06:32:33.817Z,186.13
2019-04-06T06:35:02.255Z,196.43
2019-04-06T06:37:30.687Z,176.93
2019-04-06T06:40:01.803Z,196.00
2019-04-06T06:42:30.619Z,188.00
2019-04-06T06:44:59.050Z,202.97
2019-04-06T06:47:27.513Z,177.97
2019-04-06T06:49:55.933Z,187.13
2019-04-06T06:52:24.667Z,211.97
2019-04-06T06:54:53.142Z,191.60
2019-04-06T06:57:21.755Z,192.33
2019-04-06T06:59:50.195Z,191.03
2019-04-06T07:02:18.641Z,190.53
2019-04-06T07:04:47.092Z,199.53
2019-04-06T07:07:17.002Z,182.30
2019-04-06T07:09:45.505Z,180.07
2019-04-06T07:12:14.540Z,185.53
2019-04-06T07:14:42.992Z,182.07
2019-04-06T07:17:11.438Z,177.63
2019-04-06T07:19:39.873Z,168.50
2019-04-06T07:22:08.320Z,181.70
2019-04-06T07:24:36.766Z,163.33
2019-04-06T07:27:05.210Z,176.87
2019-04-06T07:29:33.698Z,169.63
2019-04-06T07:32:02.153Z,180.13
2019-04-06T07:34:30.601Z,154.43
2019-04-06T07:36:59.037Z,161.47
2019-04-06T07:39:27.482Z,151.23
2019-04-06T07:41:55.914Z,174.23
2019-04-06T07:44:24.373Z,163.43
2019-04-06T07:46:52.910Z,150.73
2019-04-06T07:49:21.365Z,146.53
2019-04-06T07:51:50.153Z,160.97
2019-04-06T07:54:18.801Z,154.20
2019-04-06T07:56:47.246Z,156.73
2019-04-06T07:59:15.956Z,144.33
2019-04-06T08:01:44.509Z,139.80
2019-04-06T08:04:12.953Z,140.30
2019-04-06T08:06:41.427Z,141.43
2019-04-06T08:09:10.045Z,150.10
2019-04-06T08:11:38.787Z,132.40
2019-04-06T08:14:07.371Z,126.20
2019-04-06T08:16:35.819Z,127.20
2019-04-06T08:19:04.760Z,150.23
2019-04-06T08:21:33.260Z,125.73
2019-04-06T08:24:01.711Z,131.30
2019-04-06T08:26:30.257Z,145.57
2019-04-06T08:29:02.002Z,129.67
2019-04-06T08:31:28.867Z,124.67
2019-04-06T08:33:57.361Z,156.50
2019-04-06T08:36:27.326Z,126.37
2019-04-06T08:38:56.165Z,128.70
2019-04-06T08:41:24.622Z,129.63
2019-04-06T08:43:53.113Z,128.40
2019-04-06T08:46:21.597Z,128.07
2019-04-06T08:48:52.734Z,118.33
2019-04-06T08:51:21.206Z,119.37
2019-04-06T08:53:49.865Z,124.63
2019-04-06T08:56:18.994Z,116.83
2019-04-06T08:58:47.431Z,119.00
2019-04-06T09:01:15.892Z,127.17
2019-04-06T09:03:44.710Z,125.17
2019-04-06T09:06:13.159Z,115.63
2019-04-06T09:08:41.610Z,116.67
2019-04-06T09:11:10.210Z,114.27
2019-04-06T09:13:40.378Z,121.73
2019-04-06T09:16:10.233Z,117.00
2019-04-06T09:18:38.750Z,113.80
2019-04-06T09:21:07.195Z,109.23
2019-04-06T09:23:35.952Z,126.93
2019-04-06T09:26:04.759Z,114.00
2019-04-06T09:28:33.253Z,127.77
2019-04-06T09:31:01.830Z,114.03
2019-04-06T09:33:30.258Z,127.30
2019-04-06T09:35:58.707Z,109.53
2019-04-06T09:38:27.460Z,111.70
2019-04-06T09:40:56.450Z,117.43
2019-04-06T09:43:25.412Z,125.30
2019-04-06T09:45:55.513Z,129.67
2019-04-06T09:48:34.737Z,107.00
2019-04-06T09:51:10.913Z,141.37
2019-04-06T09:54:04.794Z,110.47
2019-04-06T09:56:25.039Z,119.63
2019-04-06T09:59:10.276Z,107.20
2019-04-06T10:01:40.549Z,119.90
2019-04-06T10:04:26.633Z,101.30
2019-04-06T10:06:59.734Z,97.47
2019-04-06T10:09:35.832Z,118.50
2019-04-06T10:12:21.277Z,115.93
2019-04-06T10:15:06.326Z,105.30
2019-04-06T10:17:51.591Z,98.20
2019-04-06T10:20:38.288Z,93.83
2019-04-06T10:23:11.278Z,111.53
2019-04-06T10:25:57.637Z,93.23
2019-04-06T10:28:33.650Z,89.57
2019-04-06T10:31:03.727Z,94.37
2019-04-06T10:33:49.973Z,99.83
2019-04-06T10:36:36.456Z,79.63
2019-04-06T10:39:08.405Z,92.70
2019-04-06T10:41:38.512Z,91.10
2019-04-06T10:44:20.619Z,84.50
2019-04-06T10:46:53.575Z,92.77
2019-04-06T10:49:32.402Z,82.47
2019-04-06T10:52:18.562Z,88.30
2019-04-06T10:54:51.602Z,76.43
2019-04-06T10:57:39.757Z,78.57
2019-04-06T11:00:16.595Z,83.23
2019-04-06T11:02:55.909Z,75.90
2019-04-06T11:05:29.206Z,76.70
2019-04-06T11:08:08.476Z,82.90
2019-04-06T11:10:39.649Z,73.97
2019-04-06T11:13:15.665Z,78.83
2019-04-06T11:16:03.939Z,79.30
2019-04-06T11:18:39.714Z,75.10
2019-04-06T11:21:13.846Z,73.43
2019-04-06T11:23:49.660Z,73.43
2019-04-06T11:26:25.754Z,68.40
2019-04-06T11:28:58.877Z,59.37
2019-04-06T11:31:37.966Z,69.13
2019-04-06T11:34:13.965Z,64.23
2019-04-06T11:36:47.002Z,62.37
2019-04-06T11:39:19.940Z,65.70
2019-04-06T11:42:06.487Z,61.77
2019-04-06T11:44:42.549Z,55.63
2019-04-06T11:47:28.957Z,56.57
2019-04-06T11:50:15.589Z,54.47
2019-04-06T11:52:51.730Z,51.83
2019-04-06T11:55:28.881Z,47.70
2019-04-06T11:57:58.950Z,53.03
2019-04-06T12:00:31.969Z,61.37
2019-04-06T12:03:02.046Z,54.97
2019-04-06T12:05:35.085Z,49.50
2019-04-06T12:08:10.893Z,51.03
2019-04-06T12:10:40.999Z,44.80
2019-04-06T12:13:11.305Z,56.87
2019-04-06T12:15:50.466Z,83.67
2019-04-06T12:18:23.315Z,51.13
2019-04-06T12:20:56.142Z,57.70
2019-04-06T12:23:26.377Z,60.03
2019-04-06T12:25:56.469Z,49.10
2019-04-06T12:28:35.682Z,44.97
2019-04-06T12:31:08.554Z,51.83
2019-04-06T12:33:47.823Z,52.57
2019-04-06T12:36:24.030Z,55.07
2019-04-06T12:38:57.322Z,52.53
2019-04-06T12:41:43.899Z,52.17
2019-04-06T12:44:26.119Z,55.07
2019-04-06T12:46:56.438Z,56.30
2019-04-06T12:49:28.956Z,63.23
2019-04-06T12:52:15.213Z,58.60
2019-04-06T12:54:48.257Z,51.40
2019-04-06T12:57:18.338Z,55.37
2019-04-06T12:59:51.301Z,52.03
2019-04-06T13:02:24.786Z,50.10
2019-04-06T13:05:12.774Z,59.53
2019-04-06T13:07:43.230Z,50.63
2019-04-06T13:10:16.154Z,46.20
2019-04-06T13:12:46.346Z,44.30
2019-04-06T13:15:25.856Z,54.27
2019-04-06T13:18:12.300Z,51.43
2019-04-06T13:21:10.768Z,54.40
2019-04-06T13:23:50.066Z,54.60
2019-04-06T13:26:23.046Z,59.90
2019-04-06T13:29:08.473Z,63.03
2019-04-06T13:31:44.500Z,47.37
2019-04-06T13:34:23.342Z,46.17
2019-04-06T13:36:58.972Z,44.63
2019-04-06T13:39:45.464Z,46.90
2019-04-06T13:42:24.548Z,47.60
2019-04-06T13:45:00.334Z,43.63
2019-04-06T13:47:33.242Z,44.13
2019-04-06T13:50:21.652Z,50.10
2019-04-06T13:52:52.591Z,36.63
2019-04-06T13:55:38.777Z,40.57
2019-04-06T13:58:14.830Z,41.90
2019-04-06T14:00:50.678Z,38.93
2019-04-06T14:03:20.756Z,32.30
2019-04-06T14:05:57.016Z,33.00
2019-04-06T14:08:36.437Z,48.33
2019-04-06T14:11:22.555Z,38.70
2019-04-06T14:14:08.978Z,30.73
2019-04-06T14:16:42.301Z,36.03
2019-04-06T14:19:27.606Z,37.03
2019-04-06T14:21:57.743Z,39.70
2019-04-06T14:24:44.194Z,37.20
2019-04-06T14:27:31.176Z,38.17
2019-04-06T14:30:17.899Z,31.00
2019-04-06T14:33:06.629Z,29.90
2019-04-06T14:35:45.899Z,31.83
2019-04-06T14:38:18.747Z,31.30
2019-04-06T14:41:03.953Z,30.27
2019-04-06T14:43:36.884Z,29.33
2019-04-06T14:46:18.965Z,32.40
2019-04-06T14:48:51.800Z,25.80
2019-04-06T14:51:21.891Z,35.53
2019-04-06T14:53:54.912Z,30.10
2019-04-06T14:56:25.384Z,39.60
2019-04-06T14:58:55.783Z,32.57
2019-04-06T15:01:41.502Z,33.70
2019-04-06T15:04:16.703Z,27.90
2019-04-06T15:07:09.629Z,30.37
2019-04-06T15:09:31.016Z,25.37
2019-04-06T15:12:01.290Z,40.13
2019-04-06T15:14:34.099Z,32.17
2019-04-06T15:17:06.876Z,23.87
2019-04-06T15:19:53.564Z,22.47
2019-04-06T15:22:35.862Z,40.63
2019-04-06T15:25:07.682Z,30.07
2019-04-06T15:27:49.992Z,38.37
2019-04-06T15:30:29.097Z,42.50
2019-04-06T15:33:05.285Z,44.20
2019-04-06T15:35:39.049Z,45.57
2019-04-06T15:38:18.086Z,47.00
2019-04-06T15:41:03.172Z,48.77
2019-04-06T15:43:50.043Z,51.27
2019-04-06T15:46:20.340Z,52.03
2019-04-06T15:48:52.203Z,46.67
2019-04-06T15:51:31.654Z,54.00
2019-04-06T15:54:02.364Z,48.50
2019-04-06T15:56:35.323Z,57.73
2019-04-06T15:59:21.556Z,51.07
2019-04-06T16:02:03.836Z,46.93
2019-04-06T16:04:42.925Z,51.57
2019-04-06T16:07:32.467Z,90.80
2019-04-06T16:10:16.791Z,53.63
2019-04-06T16:12:49.773Z,49.37
2019-04-06T16:15:20.159Z,56.77
2019-04-06T16:17:50.606Z,51.63
2019-04-06T16:20:36.908Z,59.97
2019-04-06T16:23:24.261Z,62.87
2019-04-06T16:25:57.104Z,61.53
2019-04-06T16:28:39.167Z,52.37
2019-04-06T16:31:09.248Z,48.70
2019-04-06T16:33:48.089Z,85.40
2019-04-06T16:36:18.231Z,55.57
2019-04-06T16:38:57.277Z,58.87
2019-04-06T16:41:39.259Z,63.30
2019-04-06T16:44:09.875Z,52.83
2019-04-06T16:46:59.147Z,55.80
2019-04-06T16:49:48.811Z,63.93
2019-04-06T16:52:19.208Z,53.70
2019-04-06T16:55:00.378Z,52.20
2019-04-06T16:57:30.883Z,56.90
2019-04-06T17:00:20.478Z,54.67
2019-04-06T17:02:52.497Z,47.93
2019-04-06T17:05:22.576Z,61.47
2019-04-06T17:07:52.644Z,54.23
2019-04-06T17:10:22.725Z,54.97
2019-04-06T17:12:55.846Z,58.57
2019-04-06T17:15:26.635Z,53.07
2019-04-06T17:17:56.709Z,55.53
2019-04-06T17:20:27.241Z,54.20
2019-04-06T17:23:06.474Z,57.20
2019-04-06T17:25:36.558Z,56.03
2019-04-06T17:28:21.865Z,53.33
2019-04-06T17:31:01.199Z,53.00
2019-04-06T17:33:40.156Z,51.50
2019-04-06T17:36:24.923Z,55.93
2019-04-06T17:38:55.021Z,59.37
2019-04-06T17:41:31.054Z,58.43
2019-04-06T17:44:04.083Z,49.10
2019-04-06T17:46:34.162Z,62.70
2019-04-06T17:49:23.311Z,65.03
2019-04-06T17:51:53.132Z,63.70
2019-04-06T17:54:35.482Z,65.13
2019-04-06T17:57:17.884Z,60.17
2019-04-06T18:00:05.085Z,62.63
2019-04-06T18:02:50.915Z,62.33
2019-04-06T18:05:21.653Z,60.27
2019-04-06T18:08:07.319Z,70.73
2019-04-06T18:10:47.352Z,62.90
2019-04-06T18:13:17.549Z,53.60
2019-04-06T18:15:46.144Z,55.90
2019-04-06T18:18:15.586Z,60.43
2019-04-06T18:20:44.825Z,53.07
2019-04-06T18:23:14.570Z,54.67
2019-04-06T18:25:43.009Z,65.97
2019-04-06T18:28:11.658Z,60.00
2019-04-06T18:30:40.613Z,57.20
2019-04-06T18:33:10.845Z,59.33
2019-04-06T18:35:39.389Z,59.87
2019-04-06T18:38:09.522Z,57.77
2019-04-06T18:40:38.124Z,70.70
2019-04-06T18:43:06.681Z,61.80
2019-04-06T18:45:35.566Z,57.00
2019-04-06T18:48:04.222Z,59.73
2019-04-06T18:50:37.689Z,66.90
2019-04-06T18:53:04.468Z,62.30
2019-04-06T18:55:32.942Z,70.83
2019-04-06T18:58:10.704Z,123.37
2019-04-06T19:00:31.551Z,66.53
2019-04-06T19:03:10.560Z,84.07
2019-04-06T19:05:30.149Z,98.70
2019-04-06T19:07:58.769Z,72.77
2019-04-06T19:10:27.205Z,62.30
2019-04-06T19:12:55.645Z,70.60
2019-04-06T19:15:24.194Z,77.97
2019-04-06T19:17:52.640Z,71.30
2019-04-06T19:20:21.618Z,65.27
2019-04-06T19:22:50.118Z,58.90
2019-04-06T19:25:18.741Z,63.23
2019-04-06T19:27:47.241Z,63.73
2019-04-06T19:30:18.094Z,66.60
2019-04-06T19:32:47.217Z,75.27
2019-04-06T19:35:16.925Z,64.30
2019-04-06T19:37:45.424Z,72.90
2019-04-06T19:40:16.174Z,64.27
2019-04-06T19:42:44.689Z,69.03
2019-04-06T19:45:14.053Z,68.40
2019-04-06T19:47:42.506Z,62.17
2019-04-06T19:50:11.733Z,73.53
2019-04-06T19:52:40.356Z,69.40
2019-04-06T19:55:10.566Z,79.60
2019-04-06T19:57:39.004Z,67.83
2019-04-06T20:00:10.039Z,76.57
2019-04-06T20:02:38.469Z,74.87
2019-04-06T20:05:10.610Z,71.87
2019-04-06T20:07:39.078Z,71.53
2019-04-06T20:10:08.501Z,64.80
2019-04-06T20:12:38.916Z,75.30
2019-04-06T20:15:08.037Z,67.30
2019-04-06T20:17:36.470Z,84.03
2019-04-06T20:20:08.762Z,71.00
2019-04-06T20:22:37.621Z,79.67
2019-04-06T20:25:09.794Z,72.90
2019-04-06T20:27:38.230Z,71.17
2019-04-06T20:30:11.299Z,69.77
2019-04-06T20:32:41.362Z,62.33
2019-04-06T20:35:11.336Z,72.43
2019-04-06T20:37:39.796Z,68.20
2019-04-06T20:40:10.190Z,68.97
2019-04-06T20:42:39.453Z,84.77
2019-04-06T20:45:09.287Z,81.53
2019-04-06T20:47:37.805Z,73.67
2019-04-06T20:50:08.016Z,79.30
2019-04-06T20:52:37.076Z,77.53
2019-04-06T20:55:10.380Z,78.63
2019-04-06T20:57:38.815Z,87.07
2019-04-06T21:00:09.726Z,78.27
2019-04-06T21:02:38.201Z,75.43
2019-04-06T21:05:08.208Z,88.77
2019-04-06T21:07:37.053Z,84.83
2019-04-06T21:10:09.843Z,77.73
2019-04-06T21:12:38.732Z,83.53
2019-04-06T21:15:16.895Z,86.50
2019-04-06T21:17:38.924Z,75.77
2019-04-06T21:20:08.202Z,82.57
2019-04-06T21:22:36.639Z,79.80
2019-04-06T21:25:07.096Z,79.33
2019-04-06T21:27:36.187Z,92.03
2019-04-06T21:30:09.230Z,85.57
2019-04-06T21:32:38.143Z,76.13
2019-04-06T21:35:07.475Z,82.60
2019-04-06T21:37:36.911Z,72.67
2019-04-06T21:40:07.249Z,82.80
2019-04-06T21:42:35.700Z,87.37
2019-04-06T21:45:06.489Z,87.73
2019-04-06T21:47:35.299Z,85.87
2019-04-06T21:50:06.933Z,92.10
2019-04-06T21:52:35.740Z,84.60
2019-04-06T21:55:06.187Z,97.10
2019-04-06T21:57:35.434Z,84.60
2019-04-06T22:00:07.467Z,83.53
2019-04-06T22:02:36.025Z,89.43
2019-04-06T22:05:06.961Z,102.07
2019-04-06T22:07:47.251Z,92.13
2019-04-06T22:10:07.133Z,76.87
2019-04-06T22:12:35.775Z,80.57
2019-04-06T22:15:05.229Z,77.33
2019-04-06T22:17:34.983Z,81.37
2019-04-06T22:20:05.528Z,87.03
2019-04-06T22:22:35.369Z,85.37
2019-04-06T22:25:05.806Z,78.77
2019-04-06T22:27:34.665Z,80.97
2019-04-06T22:30:06.809Z,86.43
2019-04-06T22:32:35.570Z,78.27
2019-04-06T22:35:07.273Z,85.50
2019-04-06T22:37:37.162Z,85.20
2019-04-06T22:40:07.550Z,74.33
2019-04-06T22:42:36.510Z,81.43
2019-04-06T22:45:09.328Z,79.73
2019-04-06T22:47:38.152Z,82.83
2019-04-06T22:50:07.627Z,82.67
2019-04-06T22:52:36.669Z,82.07
2019-04-06T22:55:09.573Z,82.17
2019-04-06T22:57:39.878Z,84.30
2019-04-06T23:00:11.408Z,82.10
2019-04-06T23:02:58.099Z,90.10
2019-04-06T23:05:37.266Z,92.83
2019-04-06T23:08:05.705Z,75.37
2019-04-06T23:10:34.493Z,88.30
2019-04-06T23:13:03.382Z,78.93
2019-04-06T23:15:31.890Z,79.70
2019-04-06T23:18:00.387Z,76.93
2019-04-06T23:20:28.839Z,73.50
2019-04-06T23:22:57.276Z,77.27
2019-04-06T23:25:25.713Z,89.33
2019-04-06T23:27:54.144Z,79.60
2019-04-06T23:30:22.678Z,83.30
2019-04-06T23:32:52.153Z,88.10
2019-04-06T23:35:20.896Z,88.90
2019-04-06T23:37:49.886Z,85.83
2019-04-06T23:40:19.095Z,84.73
2019-04-06T23:42:48.044Z,86.20
2019-04-06T23:45:16.929Z,86.03
2019-04-06T23:47:45.514Z,81.47
2019-04-06T23:50:14.529Z,96.17
2019-04-06T23:52:43.408Z,88.50
2019-04-06T23:55:12.174Z,87.30
2019-04-06T23:57:40.618Z,81.30
